Time;durP1;ratioP1;P1;durP2;ratioP2;P2;SDS_P1;SDS_P2;PMS_P1;PMS_P2;Temp;Humidity;BMP_temperature;BMP_pressure;BME280_temperature;BME280_humidity;BME280_pressure;Samples;Min_cycle;Max_cycle;Signal;HPM_P1;HPM_P2
2021/12/20 00:01:58;;;;;;;116.82;19.00;;;;;;;;;;4976409;28;20327;-73
2021/12/20 00:04:25;;;;;;;142.27;18.45;;;;;;;;;;4976455;28;20423;-73
2021/12/20 00:06:53;;;;;;;136.95;22.52;;;;;;;;;;4977457;28;20435;-73
2021/12/20 00:09:20;;;;;;;152.50;26.63;;;;;;;;;;4977353;28;20026;-73
2021/12/20 00:11:48;;;;;;;164.20;24.38;;;;;;;;;;4977373;28;20035;-72
2021/12/20 00:14:15;;;;;;;135.57;26.42;;;;;;;;;;4977365;28;20098;-72
2021/12/20 00:16:42;;;;;;;165.55;28.15;;;;;;;;;;4977210;28;20019;-73
2021/12/20 00:19:10;;;;;;;169.30;33.50;;;;;;;;;;4977067;28;20037;-74
2021/12/20 00:21:38;;;;;;;174.68;29.73;;;;;;;;;;4977286;28;20034;-73
2021/12/20 00:24:06;;;;;;;154.05;30.00;;;;;;;;;;4977213;28;20023;-72
2021/12/20 00:26:33;;;;;;;129.75;26.50;;;;;;;;;;4977033;28;20101;-72
2021/12/20 00:29:01;;;;;;;141.95;28.90;;;;;;;;;;4977083;28;20445;-72
2021/12/20 00:31:28;;;;;;;130.73;29.00;;;;;;;;;;4977137;28;20037;-72
2021/12/20 00:33:56;;;;;;;141.82;28.60;;;;;;;;;;4975944;28;20435;-72
2021/12/20 00:36:26;;;;;;;145.60;28.75;;;;;;;;;;4977009;28;20548;-72
2021/12/20 00:42:03;;;;;;;143.57;32.85;;;;;;;;;;4975158;28;20027;-71
2021/12/20 00:44:31;;;;;;;158.13;32.95;;;;;;;;;;4975107;28;20023;-71
2021/12/20 00:46:58;;;;;;;144.07;33.95;;;;;;;;;;4975061;28;20049;-70
2021/12/20 00:49:26;;;;;;;156.70;41.53;;;;;;;;;;4975201;28;20037;-69
2021/12/20 00:51:54;;;;;;;128.63;27.45;;;;;;;;;;4975024;28;20424;-68
2021/12/20 00:54:21;;;;;;;130.57;25.75;;;;;;;;;;4958778;28;20043;-68
2021/12/20 00:56:49;;;;;;;116.28;25.08;;;;;;;;;;4958186;28;20047;-68
2021/12/20 00:59:15;;;;;;;149.68;26.27;;;;;;;;;;4974922;28;20082;-68
2021/12/20 01:01:43;;;;;;;114.18;21.65;;;;;;;;;;4976929;28;20522;-68
2021/12/20 01:04:10;;;;;;;149.23;24.27;;;;;;;;;;4978677;28;20452;-68
2021/12/20 01:06:38;;;;;;;123.72;26.45;;;;;;;;;;4978657;28;20043;-68
2021/12/20 01:09:07;;;;;;;134.77;25.15;;;;;;;;;;4962449;28;20058;-68
2021/12/20 01:11:39;;;;;;;129.65;28.17;;;;;;;;;;4962321;28;20031;-68
2021/12/20 01:14:06;;;;;;;137.13;27.75;;;;;;;;;;4980384;28;20317;-68
2021/12/20 01:16:34;;;;;;;160.13;28.67;;;;;;;;;;4980254;28;20023;-68
2021/12/20 01:19:01;;;;;;;130.02;29.60;;;;;;;;;;4980101;28;20348;-68
2021/12/20 01:21:30;;;;;;;130.65;30.10;;;;;;;;;;4980188;28;20022;-68
2021/12/20 01:23:57;;;;;;;129.63;30.38;;;;;;;;;;4980277;28;20022;-68
2021/12/20 01:26:25;;;;;;;142.75;30.45;;;;;;;;;;4978937;28;20061;-68
2021/12/20 01:28:53;;;;;;;167.63;38.00;;;;;;;;;;4978842;28;20031;-69
2021/12/20 01:31:21;;;;;;;149.50;27.60;;;;;;;;;;4979892;28;20030;-70
2021/12/20 01:33:48;;;;;;;122.35;27.08;;;;;;;;;;4979966;28;20102;-69
2021/12/20 01:36:16;;;;;;;122.70;27.23;;;;;;;;;;4979860;28;20027;-67
2021/12/20 01:38:44;;;;;;;133.80;27.52;;;;;;;;;;4979930;28;20045;-68
2021/12/20 01:41:12;;;;;;;151.45;26.30;;;;;;;;;;4979921;28;20022;-68
2021/12/20 01:43:40;;;;;;;129.35;24.48;;;;;;;;;;4978838;28;20105;-69
2021/12/20 01:46:07;;;;;;;127.28;21.83;;;;;;;;;;4978741;28;20424;-69
2021/12/20 01:48:36;;;;;;;139.75;26.63;;;;;;;;;;4979843;28;20099;-69
2021/12/20 01:53:50;;;;;;;155.63;29.50;;;;;;;;;;4979888;28;20443;-67
2021/12/20 01:56:16;;;;;;;173.38;30.77;;;;;;;;;;4979567;28;20074;-68
2021/12/20 01:58:42;;;;;;;144.77;29.77;;;;;;;;;;4978646;28;20030;-67
2021/12/20 02:03:44;;;;;;;155.55;30.60;;;;;;;;;;4984908;28;20069;-66
2021/12/20 02:06:34;;;;;;;145.02;32.13;;;;;;;;;;4979420;28;20026;-70
2021/12/20 02:09:06;;;;;;;142.13;33.40;;;;;;;;;;4961673;28;20431;-68
2021/12/20 02:11:34;;;;;;;138.45;28.13;;;;;;;;;;4958195;28;20028;-67
2021/12/20 02:14:02;;;;;;;139.57;27.70;;;;;;;;;;4958893;28;20420;-68
2021/12/20 02:16:29;;;;;;;147.00;29.08;;;;;;;;;;4959812;28;20086;-67
2021/12/20 02:18:57;;;;;;;170.43;32.15;;;;;;;;;;4959887;28;20029;-68
2021/12/20 02:21:24;;;;;;;153.18;27.27;;;;;;;;;;4978897;28;20027;-68
2021/12/20 02:23:52;;;;;;;123.07;25.33;;;;;;;;;;4978015;28;20027;-68
2021/12/20 02:26:26;;;;;;;133.60;25.55;;;;;;;;;;4978011;28;20113;-68
2021/12/20 02:28:56;;;;;;;131.13;24.88;;;;;;;;;;4977864;28;20085;-68
2021/12/20 02:39:31;;;;;;;128.18;30.15;;;;;;;;;;4966715;28;20031;-69
2021/12/20 02:41:58;;;;;;;128.68;28.98;;;;;;;;;;4958359;28;20027;-67
2021/12/20 02:44:28;;;;;;;142.80;27.63;;;;;;;;;;4978610;28;20031;-68
2021/12/20 02:49:28;;;;;;;105.30;24.65;;;;;;;;;;4978558;28;20054;-69
2021/12/20 02:52:00;;;;;;;95.03;21.75;;;;;;;;;;4971185;28;20106;-68
2021/12/20 02:54:32;;;;;;;75.68;18.58;;;;;;;;;;4959117;28;20475;-69
2021/12/20 02:56:58;;;;;;;114.22;23.48;;;;;;;;;;4959050;29;20348;-68
2021/12/20 02:59:25;;;;;;;112.43;21.58;;;;;;;;;;4959156;28;20019;-68
2021/12/20 03:01:55;;;;;;;90.57;20.50;;;;;;;;;;4958779;28;20055;-67
2021/12/20 03:04:23;;;;;;;84.43;20.80;;;;;;;;;;4959161;28;20023;-67
2021/12/20 03:07:00;;;;;;;121.97;22.27;;;;;;;;;;4958967;28;20035;-67
2021/12/20 03:09:34;;;;;;;90.88;19.15;;;;;;;;;;4959490;28;20098;-68
2021/12/20 03:12:07;;;;;;;78.40;20.48;;;;;;;;;;4957748;28;20377;-68
2021/12/20 03:14:39;;;;;;;84.50;17.25;;;;;;;;;;4942869;29;20310;-70
2021/12/20 03:17:09;;;;;;;75.38;16.08;;;;;;;;;;4958258;28;20023;-68
2021/12/20 03:19:37;;;;;;;65.60;15.75;;;;;;;;;;4958731;28;20027;-67
2021/12/20 03:22:07;;;;;;;83.90;17.15;;;;;;;;;;4958301;28;20043;-67
2021/12/20 03:24:35;;;;;;;81.50;19.15;;;;;;;;;;4956263;28;20030;-67
2021/12/20 03:27:03;;;;;;;82.68;20.92;;;;;;;;;;4958204;28;20041;-67
2021/12/20 03:29:31;;;;;;;87.97;21.73;;;;;;;;;;4957004;28;20074;-67
2021/12/20 03:31:59;;;;;;;86.47;22.70;;;;;;;;;;4956943;28;20477;-65
2021/12/20 03:34:26;;;;;;;66.78;20.27;;;;;;;;;;4958056;28;20333;-66
2021/12/20 03:36:54;;;;;;;68.82;18.85;;;;;;;;;;4975429;28;20084;-67
2021/12/20 03:39:22;;;;;;;61.25;20.63;;;;;;;;;;4959080;28;20034;-69
2021/12/20 03:41:49;;;;;;;77.95;24.10;;;;;;;;;;4975317;28;20038;-68
2021/12/20 03:44:17;;;;;;;64.80;21.75;;;;;;;;;;4975450;28;20034;-69
2021/12/20 03:46:45;;;;;;;67.50;20.13;;;;;;;;;;4975419;28;20111;-68
2021/12/20 03:49:13;;;;;;;66.45;22.20;;;;;;;;;;4974932;28;20313;-66
2021/12/20 03:51:40;;;;;;;61.92;20.33;;;;;;;;;;4975173;28;20454;-65
2021/12/20 03:54:07;;;;;;;56.40;20.63;;;;;;;;;;4975417;28;20039;-65
2021/12/20 03:56:34;;;;;;;64.05;29.55;;;;;;;;;;4959867;28;20073;-65
2021/12/20 03:59:01;;;;;;;71.10;29.63;;;;;;;;;;4959530;28;20059;-65
2021/12/20 04:01:29;;;;;;;60.22;23.92;;;;;;;;;;4959364;28;20039;-69
2021/12/20 04:04:02;;;;;;;59.15;25.00;;;;;;;;;;4973833;28;20065;-67
2021/12/20 04:06:31;;;;;;;74.45;35.63;;;;;;;;;;4973092;28;20108;-67
2021/12/20 04:08:59;;;;;;;97.38;44.75;;;;;;;;;;4974752;28;20094;-65
2021/12/20 04:11:28;;;;;;;94.72;41.28;;;;;;;;;;4974276;28;20097;-66
2021/12/20 04:13:56;;;;;;;78.40;32.80;;;;;;;;;;4958719;28;20035;-67
2021/12/20 04:16:24;;;;;;;80.00;32.20;;;;;;;;;;4955670;28;20109;-65
2021/12/20 04:19:00;;;;;;;74.35;28.83;;;;;;;;;;4953799;28;20047;-67
2021/12/20 04:21:31;;;;;;;83.88;32.92;;;;;;;;;;4957268;28;20026;-66
2021/12/20 04:23:58;;;;;;;75.07;29.13;;;;;;;;;;4977971;28;20060;-65
2021/12/20 04:26:29;;;;;;;71.65;28.73;;;;;;;;;;4965406;28;20027;-65
2021/12/20 04:28:59;;;;;;;80.80;30.77;;;;;;;;;;4968473;28;20019;-66
2021/12/20 04:31:28;;;;;;;93.45;37.20;;;;;;;;;;4965485;28;20019;-67
2021/12/20 04:33:56;;;;;;;110.75;46.28;;;;;;;;;;4959480;28;20035;-66
2021/12/20 04:36:24;;;;;;;106.70;46.78;;;;;;;;;;4968567;28;20420;-65
2021/12/20 04:38:51;;;;;;;128.93;52.13;;;;;;;;;;4970491;28;20031;-67
2021/12/20 04:41:19;;;;;;;115.10;47.03;;;;;;;;;;4968577;28;20348;-66
2021/12/20 04:43:46;;;;;;;127.95;51.35;;;;;;;;;;4970321;28;20447;-68
2021/12/20 04:46:14;;;;;;;113.47;40.47;;;;;;;;;;4970454;28;20115;-67
2021/12/20 04:48:42;;;;;;;101.07;40.28;;;;;;;;;;4966972;28;20015;-68
2021/12/20 04:51:09;;;;;;;208.77;84.68;;;;;;;;;;4969006;28;20054;-67
2021/12/20 04:53:37;;;;;;;177.68;76.70;;;;;;;;;;4963229;28;20030;-67
2021/12/20 04:56:03;;;;;;;109.78;42.30;;;;;;;;;;4963722;28;20045;-66
2021/12/20 04:58:31;;;;;;;78.38;26.73;;;;;;;;;;4966922;28;20089;-66
2021/12/20 05:01:01;;;;;;;127.40;53.65;;;;;;;;;;4960405;28;20059;-67
2021/12/20 05:03:29;;;;;;;146.30;66.00;;;;;;;;;;4960728;28;20032;-67
2021/12/20 05:06:02;;;;;;;141.40;58.35;;;;;;;;;;4959990;28;20094;-67
2021/12/20 05:08:46;;;;;;;126.40;47.42;;;;;;;;;;4976601;28;20031;-65
2021/12/20 05:11:13;;;;;;;97.68;33.15;;;;;;;;;;4979708;28;20026;-66
2021/12/20 05:13:40;;;;;;;130.13;43.50;;;;;;;;;;4972773;28;20086;-67
2021/12/20 05:16:08;;;;;;;127.03;45.78;;;;;;;;;;4973066;28;20031;-66
2021/12/20 05:18:36;;;;;;;116.03;32.75;;;;;;;;;;4979225;28;20059;-66
2021/12/20 05:21:04;;;;;;;117.90;32.65;;;;;;;;;;4980111;28;20408;-66
2021/12/20 05:23:31;;;;;;;117.68;35.60;;;;;;;;;;4966062;28;20023;-66
2021/12/20 05:25:59;;;;;;;107.38;35.55;;;;;;;;;;4963473;28;20035;-69
2021/12/20 05:28:26;;;;;;;110.38;31.77;;;;;;;;;;4961869;28;20050;-70
2021/12/20 05:30:54;;;;;;;111.20;26.85;;;;;;;;;;4960795;28;20031;-68
2021/12/20 05:33:22;;;;;;;105.15;26.90;;;;;;;;;;4960541;28;20030;-68
2021/12/20 05:35:50;;;;;;;98.70;28.95;;;;;;;;;;4960010;28;20043;-69
2021/12/20 05:38:19;;;;;;;99.68;30.80;;;;;;;;;;4983433;28;20061;-68
2021/12/20 05:40:50;;;;;;;100.65;31.58;;;;;;;;;;5003691;28;20045;-71
2021/12/20 05:43:18;;;;;;;119.75;32.65;;;;;;;;;;5009039;28;20097;-71
2021/12/20 05:45:46;;;;;;;102.22;30.50;;;;;;;;;;5008210;28;20018;-71
2021/12/20 05:50:49;;;;;;;112.90;32.97;;;;;;;;;;5073027;23;20054;-66
2021/12/20 05:53:16;;;;;;;120.70;39.72;;;;;;;;;;4998140;28;20026;-66
2021/12/20 05:55:44;;;;;;;115.45;43.50;;;;;;;;;;4998547;28;20077;-67
2021/12/20 05:58:12;;;;;;;106.53;36.25;;;;;;;;;;4999366;28;20026;-67
2021/12/20 06:00:39;;;;;;;106.10;30.00;;;;;;;;;;4999407;28;20019;-66
2021/12/20 06:03:07;;;;;;;91.45;25.58;;;;;;;;;;4999629;28;20033;-68
2021/12/20 06:05:34;;;;;;;93.20;28.75;;;;;;;;;;4999583;28;20102;-66
2021/12/20 06:08:02;;;;;;;85.55;23.52;;;;;;;;;;4994527;28;20042;-66
2021/12/20 06:10:31;;;;;;;91.72;24.95;;;;;;;;;;4979764;28;20026;-68
2021/12/20 06:12:59;;;;;;;77.63;25.50;;;;;;;;;;4979787;28;20027;-66
2021/12/20 06:15:27;;;;;;;85.07;26.13;;;;;;;;;;4980239;28;20089;-68
2021/12/20 06:18:30;;;;;;;82.32;22.80;;;;;;;;;;4991918;28;20034;-70
2021/12/20 06:23:57;;;;;;;120.78;35.63;;;;;;;;;;4864158;26;20049;-69
2021/12/20 06:26:24;;;;;;;125.20;37.45;;;;;;;;;;4998322;28;20026;-66
2021/12/20 06:28:52;;;;;;;109.20;39.88;;;;;;;;;;4998205;28;20037;-66
2021/12/20 06:31:20;;;;;;;128.77;37.25;;;;;;;;;;4997630;28;20042;-67
2021/12/20 06:33:47;;;;;;;106.40;30.67;;;;;;;;;;4997464;28;20031;-67
2021/12/20 06:36:16;;;;;;;105.95;28.85;;;;;;;;;;4997248;28;20319;-66
2021/12/20 06:38:45;;;;;;;120.03;35.53;;;;;;;;;;4996362;28;20022;-66
2021/12/20 06:41:13;;;;;;;96.75;28.73;;;;;;;;;;4997532;28;20033;-66
2021/12/20 06:43:41;;;;;;;111.28;29.55;;;;;;;;;;4997495;28;20022;-67
2021/12/20 06:46:09;;;;;;;85.95;27.08;;;;;;;;;;4997147;28;20029;-66
2021/12/20 06:48:37;;;;;;;85.72;21.52;;;;;;;;;;4997444;28;20059;-66
2021/12/20 06:51:04;;;;;;;114.53;36.70;;;;;;;;;;4990098;28;20328;-67
2021/12/20 06:53:32;;;;;;;101.75;30.38;;;;;;;;;;4978251;28;20027;-67
2021/12/20 06:56:00;;;;;;;111.05;32.70;;;;;;;;;;4978406;28;20023;-66
2021/12/20 06:58:27;;;;;;;94.90;27.33;;;;;;;;;;4978078;28;20523;-67
2021/12/20 07:00:55;;;;;;;92.18;25.33;;;;;;;;;;4978007;28;20022;-67
2021/12/20 07:03:23;;;;;;;94.60;25.52;;;;;;;;;;4978656;28;20023;-67
2021/12/20 07:05:50;;;;;;;89.35;24.25;;;;;;;;;;4979837;28;20023;-66
2021/12/20 07:08:18;;;;;;;91.57;24.80;;;;;;;;;;4978544;28;20046;-68
2021/12/20 07:10:46;;;;;;;107.75;30.35;;;;;;;;;;4978098;28;20042;-67
2021/12/20 07:13:13;;;;;;;111.43;26.33;;;;;;;;;;4978145;28;20432;-66
2021/12/20 07:15:41;;;;;;;104.45;27.08;;;;;;;;;;4978146;28;20408;-66
2021/12/20 07:18:08;;;;;;;131.45;36.83;;;;;;;;;;4976789;28;20038;-67
2021/12/20 07:20:36;;;;;;;110.88;30.85;;;;;;;;;;4978116;28;20394;-66
2021/12/20 07:23:02;;;;;;;98.75;24.88;;;;;;;;;;4975629;28;20051;-65
2021/12/20 07:25:30;;;;;;;105.65;28.23;;;;;;;;;;4978159;28;20328;-65
2021/12/20 07:27:58;;;;;;;106.40;24.50;;;;;;;;;;4977015;28;20113;-66
2021/12/20 07:30:25;;;;;;;90.68;19.98;;;;;;;;;;4977545;28;20027;-65
2021/12/20 07:32:56;;;;;;;74.68;17.45;;;;;;;;;;4976470;28;20027;-67
2021/12/20 07:35:23;;;;;;;81.45;19.35;;;;;;;;;;4977702;28;20023;-65
2021/12/20 07:37:54;;;;;;;93.97;19.50;;;;;;;;;;4977433;28;20031;-66
2021/12/20 07:40:21;;;;;;;97.85;21.50;;;;;;;;;;4977309;28;20093;-66
2021/12/20 07:42:49;;;;;;;91.82;21.67;;;;;;;;;;4977346;28;20427;-66
2021/12/20 07:48:43;;;;;;;98.30;21.85;;;;;;;;;;4988036;28;20023;-69
2021/12/20 07:51:11;;;;;;;92.18;21.60;;;;;;;;;;4975849;28;20058;-68
2021/12/20 07:53:39;;;;;;;98.97;20.30;;;;;;;;;;4977428;28;20031;-68
2021/12/20 07:56:07;;;;;;;99.38;22.95;;;;;;;;;;4976011;28;20029;-67
2021/12/20 07:58:34;;;;;;;87.93;21.50;;;;;;;;;;4977211;28;20551;-68
2021/12/20 08:01:04;;;;;;;95.03;22.35;;;;;;;;;;4976105;28;20451;-66
2021/12/20 08:03:32;;;;;;;88.68;21.33;;;;;;;;;;4975760;28;20142;-67
2021/12/20 08:06:00;;;;;;;84.28;22.48;;;;;;;;;;4976983;28;20054;-65
2021/12/20 08:08:29;;;;;;;100.63;25.25;;;;;;;;;;4977735;28;20019;-68
2021/12/20 08:10:57;;;;;;;87.10;23.17;;;;;;;;;;4976262;28;20031;-68
2021/12/20 08:13:25;;;;;;;89.68;21.75;;;;;;;;;;4977914;28;20027;-66
2021/12/20 08:15:52;;;;;;;74.00;20.60;;;;;;;;;;4983983;28;20074;-66
2021/12/20 08:18:20;;;;;;;85.00;25.50;;;;;;;;;;4976671;28;20041;-68
2021/12/20 08:20:48;;;;;;;90.68;23.17;;;;;;;;;;4977065;28;20083;-67
2021/12/20 08:23:15;;;;;;;70.65;20.67;;;;;;;;;;4976482;28;20490;-67
2021/12/20 08:25:43;;;;;;;74.25;21.25;;;;;;;;;;4976912;28;20405;-68
2021/12/20 08:28:11;;;;;;;87.32;23.25;;;;;;;;;;4975745;28;20335;-66
2021/12/20 08:30:38;;;;;;;92.53;25.38;;;;;;;;;;4977265;28;20375;-69
2021/12/20 08:33:06;;;;;;;83.90;22.65;;;;;;;;;;4976423;28;20041;-68
2021/12/20 08:35:34;;;;;;;85.95;22.23;;;;;;;;;;4976444;28;20085;-71
2021/12/20 08:38:01;;;;;;;78.72;21.25;;;;;;;;;;4975660;28;20035;-65
2021/12/20 08:40:29;;;;;;;70.03;19.77;;;;;;;;;;4976682;28;20081;-66
2021/12/20 08:42:57;;;;;;;86.45;26.00;;;;;;;;;;4976002;28;20033;-70
2021/12/20 08:45:24;;;;;;;92.55;30.50;;;;;;;;;;4976864;28;20029;-66
2021/12/20 08:47:52;;;;;;;77.95;20.67;;;;;;;;;;4975666;28;20050;-65
2021/12/20 08:50:20;;;;;;;70.53;23.13;;;;;;;;;;4976549;28;20084;-67
2021/12/20 08:52:48;;;;;;;80.03;24.25;;;;;;;;;;4976934;28;20027;-69
2021/12/20 08:55:16;;;;;;;89.78;23.13;;;;;;;;;;4976504;28;20062;-67
2021/12/20 08:57:44;;;;;;;82.60;25.35;;;;;;;;;;4976681;28;20023;-68
2021/12/20 09:00:14;;;;;;;79.70;22.58;;;;;;;;;;4976676;28;20026;-69
2021/12/20 09:02:41;;;;;;;69.78;23.23;;;;;;;;;;4975658;28;20019;-69
2021/12/20 09:05:09;;;;;;;78.70;24.45;;;;;;;;;;4986992;28;20062;-70
2021/12/20 09:07:40;;;;;;;72.03;22.92;;;;;;;;;;4976367;28;20038;-69
2021/12/20 09:10:09;;;;;;;77.30;25.42;;;;;;;;;;4976155;28;20027;-69
2021/12/20 09:12:37;;;;;;;84.40;21.52;;;;;;;;;;4976443;28;20023;-68
2021/12/20 09:15:05;;;;;;;70.50;20.33;;;;;;;;;;4976239;28;20476;-70
2021/12/20 09:17:33;;;;;;;69.53;19.48;;;;;;;;;;4976092;28;20430;-69
2021/12/20 09:20:00;;;;;;;75.60;20.50;;;;;;;;;;4976721;28;20050;-67
2021/12/20 09:22:29;;;;;;;71.40;20.70;;;;;;;;;;4977611;28;20047;-65
2021/12/20 09:24:56;;;;;;;69.82;20.80;;;;;;;;;;4980098;28;20054;-69
2021/12/20 09:27:23;;;;;;;108.20;34.47;;;;;;;;;;4980000;28;20018;-67
2021/12/20 09:29:51;;;;;;;66.43;21.10;;;;;;;;;;4978175;28;20050;-67
2021/12/20 09:32:19;;;;;;;73.32;22.90;;;;;;;;;;4978120;28;20045;-66
2021/12/20 09:34:47;;;;;;;66.20;23.02;;;;;;;;;;4975938;28;20038;-66
2021/12/20 09:37:14;;;;;;;56.35;17.08;;;;;;;;;;4982884;28;20146;-66
2021/12/20 09:39:42;;;;;;;60.90;18.23;;;;;;;;;;4984548;28;20023;-66
2021/12/20 09:42:12;;;;;;;56.13;17.48;;;;;;;;;;4963767;28;20050;-65
2021/12/20 09:44:44;;;;;;;64.63;21.08;;;;;;;;;;4963155;28;20027;-67
2021/12/20 09:47:11;;;;;;;89.80;26.23;;;;;;;;;;4964396;28;20086;-67
2021/12/20 09:49:39;;;;;;;71.60;25.27;;;;;;;;;;4968045;28;20030;-67
2021/12/20 09:52:07;;;;;;;64.38;21.88;;;;;;;;;;4964054;28;20038;-66
2021/12/20 09:54:34;;;;;;;87.63;27.98;;;;;;;;;;4982898;28;20081;-66
2021/12/20 09:57:06;;;;;;;80.80;25.23;;;;;;;;;;4974942;28;20121;-68
2021/12/20 09:59:36;;;;;;;65.82;19.65;;;;;;;;;;4973478;28;20015;-66
2021/12/20 10:02:07;;;;;;;77.32;22.83;;;;;;;;;;4981007;28;20026;-64
2021/12/20 10:04:38;;;;;;;77.00;22.48;;;;;;;;;;4981583;28;20069;-65
2021/12/20 10:07:05;;;;;;;76.82;23.08;;;;;;;;;;4981605;28;20031;-65
2021/12/20 10:09:35;;;;;;;53.53;17.42;;;;;;;;;;4980432;28;20035;-65
2021/12/20 10:12:21;;;;;;;90.93;28.45;;;;;;;;;;4981756;28;20018;-66
2021/12/20 10:15:02;;;;;;;63.95;19.70;;;;;;;;;;4981054;28;20050;-63
2021/12/20 10:17:32;;;;;;;82.22;27.92;;;;;;;;;;4980836;28;20504;-66
2021/12/20 10:20:17;;;;;;;88.85;33.30;;;;;;;;;;4979611;28;20114;-63
2021/12/20 10:22:44;;;;;;;76.75;26.00;;;;;;;;;;4979056;28;20113;-64
2021/12/20 10:25:25;;;;;;;71.60;24.95;;;;;;;;;;4979559;28;20038;-68
2021/12/20 10:27:56;;;;;;;68.78;24.75;;;;;;;;;;4971056;28;20051;-66
2021/12/20 10:30:28;;;;;;;96.63;39.25;;;;;;;;;;4969361;28;20031;-68
2021/12/20 10:32:56;;;;;;;129.27;51.10;;;;;;;;;;4967470;28;20027;-66
2021/12/20 10:35:32;;;;;;;141.93;56.10;;;;;;;;;;4959526;28;20031;-66
2021/12/20 10:38:01;;;;;;;111.93;44.80;;;;;;;;;;4959650;28;20106;-64
2021/12/20 10:40:29;;;;;;;99.43;40.70;;;;;;;;;;4958571;28;20031;-65
2021/12/20 10:42:57;;;;;;;94.55;37.20;;;;;;;;;;4959402;28;20046;-64
2021/12/20 10:45:26;;;;;;;53.78;23.08;;;;;;;;;;4958344;28;20494;-65
2021/12/20 10:47:54;;;;;;;56.47;21.23;;;;;;;;;;4959564;28;20106;-64
2021/12/20 10:50:40;;;;;;;69.55;26.63;;;;;;;;;;4959184;28;20024;-64
2021/12/20 10:53:17;;;;;;;68.35;26.75;;;;;;;;;;4958956;28;20023;-67
2021/12/20 10:55:46;;;;;;;78.78;31.55;;;;;;;;;;4959052;28;20030;-66
2021/12/20 10:58:28;;;;;;;83.05;29.50;;;;;;;;;;4957921;28;20138;-66
2021/12/20 11:01:22;;;;;;;74.32;26.60;;;;;;;;;;4958030;28;20425;-66
2021/12/20 11:04:00;;;;;;;82.97;26.80;;;;;;;;;;4958784;28;20035;-66
2021/12/20 11:06:44;;;;;;;55.40;17.67;;;;;;;;;;4958892;28;20098;-66
2021/12/20 11:09:21;;;;;;;59.33;23.65;;;;;;;;;;4958763;28;20074;-66
2021/12/20 11:11:55;;;;;;;70.55;24.05;;;;;;;;;;4958716;28;20027;-66
2021/12/20 11:14:27;;;;;;;89.72;30.48;;;;;;;;;;4957784;28;20058;-66
2021/12/20 11:16:57;;;;;;;76.85;28.65;;;;;;;;;;4958726;28;20030;-65
2021/12/20 11:19:32;;;;;;;58.55;22.48;;;;;;;;;;4958126;28;20035;-66
2021/12/20 11:22:19;;;;;;;67.90;23.08;;;;;;;;;;4957742;28;20437;-65
2021/12/20 11:25:03;;;;;;;68.13;23.05;;;;;;;;;;4958834;28;20033;-66
2021/12/20 11:27:35;;;;;;;67.63;24.08;;;;;;;;;;4959127;28;20148;-65
2021/12/20 11:30:23;;;;;;;66.40;25.67;;;;;;;;;;4959088;28;20350;-67
2021/12/20 11:32:51;;;;;;;77.93;29.17;;;;;;;;;;4958424;29;20046;-65
2021/12/20 11:35:20;;;;;;;66.82;28.58;;;;;;;;;;4958987;29;20073;-65
2021/12/20 11:37:48;;;;;;;73.95;28.75;;;;;;;;;;4957357;28;20023;-66
2021/12/20 11:40:21;;;;;;;79.90;30.80;;;;;;;;;;4958423;28;20023;-67
2021/12/20 11:42:50;;;;;;;74.18;30.50;;;;;;;;;;4958506;28;20091;-68
2021/12/20 11:45:18;;;;;;;69.85;28.98;;;;;;;;;;4957708;28;20019;-65
2021/12/20 11:48:17;;;;;;;66.97;29.25;;;;;;;;;;4959040;28;20432;-66
2021/12/20 11:50:45;;;;;;;72.45;32.15;;;;;;;;;;4957288;28;20035;-67
2021/12/20 11:53:14;;;;;;;72.28;31.13;;;;;;;;;;4958495;28;20035;-68
2021/12/20 11:55:53;;;;;;;92.18;36.97;;;;;;;;;;4958042;28;20105;-66
2021/12/20 11:58:23;;;;;;;89.57;34.33;;;;;;;;;;4957900;28;20027;-66
2021/12/20 12:00:55;;;;;;;87.28;35.08;;;;;;;;;;4958459;28;20023;-66
2021/12/20 12:03:24;;;;;;;72.55;33.17;;;;;;;;;;4956897;28;20030;-66
2021/12/20 12:06:01;;;;;;;91.22;37.53;;;;;;;;;;4957567;28;20045;-67
2021/12/20 12:08:48;;;;;;;110.28;48.20;;;;;;;;;;4957593;28;20041;-65
2021/12/20 12:11:19;;;;;;;125.75;53.55;;;;;;;;;;4956645;28;20034;-66
2021/12/20 12:16:48;;;;;;;107.63;48.70;;;;;;;;;;4957657;28;20041;-65
2021/12/20 12:19:35;;;;;;;122.72;53.53;;;;;;;;;;4956411;28;20344;-65
2021/12/20 12:22:01;;;;;;;376.35;146.88;;;;;;;;;;4957481;28;20448;-67
2021/12/20 12:24:44;;;;;;;180.43;85.15;;;;;;;;;;4957646;28;20051;-68
2021/12/20 12:27:22;;;;;;;92.85;42.65;;;;;;;;;;4959081;28;20488;-67
2021/12/20 12:30:09;;;;;;;78.97;35.40;;;;;;;;;;4957605;28;20031;-67
2021/12/20 12:32:37;;;;;;;83.40;38.53;;;;;;;;;;4974682;28;20038;-67
2021/12/20 12:35:05;;;;;;;91.57;42.05;;;;;;;;;;4974899;28;20031;-67
2021/12/20 12:37:37;;;;;;;95.30;40.20;;;;;;;;;;4974869;28;20067;-67
2021/12/20 12:40:22;;;;;;;85.82;36.35;;;;;;;;;;4975748;28;20023;-68
2021/12/20 12:42:55;;;;;;;86.50;35.40;;;;;;;;;;4975376;28;20030;-67
2021/12/20 12:46:02;;;;;;;79.65;36.42;;;;;;;;;;4976334;28;20460;-66
2021/12/20 12:48:41;;;;;;;68.35;30.88;;;;;;;;;;4898556;29;20033;-67
2021/12/20 12:51:25;;;;;;;85.18;40.88;;;;;;;;;;4898328;29;20033;-67
2021/12/20 12:53:54;;;;;;;97.97;40.28;;;;;;;;;;4898864;29;20044;-68
2021/12/20 12:56:30;;;;;;;109.38;45.97;;;;;;;;;;4900244;29;20183;-68
2021/12/20 12:59:14;;;;;;;119.13;50.67;;;;;;;;;;4902810;29;20044;-68
2021/12/20 13:01:51;;;;;;;134.68;58.58;;;;;;;;;;4904118;29;20050;-69
2021/12/20 13:04:19;;;;;;;94.90;45.03;;;;;;;;;;4902706;29;20032;-67
2021/12/20 13:06:47;;;;;;;141.90;66.97;;;;;;;;;;4902906;29;20035;-69
2021/12/20 13:09:15;;;;;;;155.93;69.47;;;;;;;;;;4902558;29;20582;-68
2021/12/20 13:11:43;;;;;;;182.77;80.97;;;;;;;;;;4902818;29;20032;-68
2021/12/20 13:14:17;;;;;;;261.10;113.57;;;;;;;;;;4886488;29;20025;-68
2021/12/20 13:16:58;;;;;;;320.00;138.48;;;;;;;;;;4902798;29;20036;-68
2021/12/20 13:19:35;;;;;;;166.90;77.03;;;;;;;;;;4886593;29;20168;-68
2021/12/20 13:22:07;;;;;;;160.35;68.57;;;;;;;;;;4911754;29;20048;-67
2021/12/20 13:24:34;;;;;;;129.25;59.97;;;;;;;;;;4961277;28;20024;-67
2021/12/20 13:27:09;;;;;;;115.75;55.28;;;;;;;;;;4960963;28;20058;-67
2021/12/20 13:29:38;;;;;;;108.22;50.20;;;;;;;;;;4959910;28;20093;-68
2021/12/20 13:32:09;;;;;;;136.52;62.35;;;;;;;;;;4960602;28;20436;-67
2021/12/20 13:34:37;;;;;;;99.30;46.40;;;;;;;;;;4960299;28;20041;-67
2021/12/20 13:37:08;;;;;;;95.20;48.13;;;;;;;;;;4960551;28;20396;-67
2021/12/20 13:39:37;;;;;;;94.47;44.15;;;;;;;;;;4959442;28;20043;-68
2021/12/20 13:42:09;;;;;;;99.22;43.75;;;;;;;;;;4960776;28;20138;-68
2021/12/20 13:44:37;;;;;;;90.63;41.75;;;;;;;;;;4960518;28;20456;-68
2021/12/20 13:47:15;;;;;;;99.03;42.67;;;;;;;;;;4960579;28;20471;-69
2021/12/20 13:49:43;;;;;;;96.88;41.60;;;;;;;;;;4960419;28;20019;-68
2021/12/20 13:52:12;;;;;;;96.90;40.17;;;;;;;;;;4960280;28;20107;-68
2021/12/20 13:54:43;;;;;;;81.80;36.10;;;;;;;;;;4959317;28;20035;-67
2021/12/20 13:57:26;;;;;;;67.63;30.92;;;;;;;;;;4960286;28;20038;-68
2021/12/20 14:00:05;;;;;;;64.40;28.20;;;;;;;;;;4960013;28;20420;-67
2021/12/20 14:02:39;;;;;;;61.78;27.23;;;;;;;;;;4961551;28;20372;-68
2021/12/20 14:05:24;;;;;;;53.03;26.25;;;;;;;;;;4978849;28;20034;-67
2021/12/20 14:07:54;;;;;;;55.53;25.52;;;;;;;;;;4978311;28;20027;-67
2021/12/20 14:10:33;;;;;;;57.95;26.27;;;;;;;;;;4961501;28;20034;-67
2021/12/20 14:13:08;;;;;;;63.92;29.23;;;;;;;;;;4960381;28;20031;-67
2021/12/20 14:15:40;;;;;;;77.15;35.38;;;;;;;;;;4962922;28;20026;-68
2021/12/20 14:18:20;;;;;;;76.72;36.97;;;;;;;;;;4977655;28;20113;-68
2021/12/20 14:20:53;;;;;;;74.53;34.67;;;;;;;;;;4960826;28;20118;-68
2021/12/20 14:23:34;;;;;;;80.82;33.75;;;;;;;;;;4976778;28;20039;-68
2021/12/20 14:26:03;;;;;;;71.47;32.10;;;;;;;;;;4977179;28;20110;-68
2021/12/20 14:28:32;;;;;;;60.72;29.58;;;;;;;;;;4960858;28;20066;-68
2021/12/20 14:31:09;;;;;;;68.63;29.77;;;;;;;;;;4961000;28;20022;-68
2021/12/20 14:33:38;;;;;;;76.80;32.22;;;;;;;;;;4967382;28;20043;-68
2021/12/20 14:36:17;;;;;;;86.03;35.47;;;;;;;;;;4960221;28;20032;-69
2021/12/20 14:38:50;;;;;;;84.18;37.25;;;;;;;;;;4959004;28;20332;-68
2021/12/20 14:41:38;;;;;;;86.07;37.65;;;;;;;;;;4959299;28;20023;-69
2021/12/20 14:44:20;;;;;;;88.38;38.70;;;;;;;;;;4958782;28;20023;-68
2021/12/20 14:46:55;;;;;;;95.78;40.78;;;;;;;;;;4960077;28;20027;-69
2021/12/20 14:49:28;;;;;;;113.50;47.33;;;;;;;;;;4958953;28;20027;-69
2021/12/20 14:52:06;;;;;;;118.18;50.00;;;;;;;;;;4960204;28;20438;-69
2021/12/20 14:54:39;;;;;;;127.97;54.53;;;;;;;;;;4959696;28;20027;-69
2021/12/20 14:57:12;;;;;;;137.23;59.22;;;;;;;;;;4958440;28;20055;-69
2021/12/20 14:59:40;;;;;;;158.90;69.28;;;;;;;;;;4958660;28;20031;-69
2021/12/20 15:02:10;;;;;;;178.45;80.13;;;;;;;;;;4959746;28;20061;-68